Time,TemperatureF,DewpointF,PressureIn,WindDirection,WindDirectionDegrees,WindSpeedMPH,WindSpeedGustMPH,Humidity,HourlyPrecipIn,Conditions,Clouds,dailyrainin,SoftwareType,DateUTC
2013-09-30 00:57:00,45.9,45.4,30.40,ENE,58,0.0,1.0,98,0.00,CLR,,0.00,WeatherDisplay:10.37,2013-09-30 04:57:00,
2013-09-30 01:57:00,46.8,46.0,30.39,ENE,58,0.0,1.0,97,0.00,CLR,,0.00,WeatherDisplay:10.37,2013-09-30 05:57:00,
2013-09-30 02:57:00,46.7,45.9,30.37,ENE,58,0.0,0.0,97,0.00,CLR,,0.00,WeatherDisplay:10.37,2013-09-30 06:57:00,
2013-09-30 03:57:00,48.2,47.4,30.37,ENE,58,0.0,0.0,97,0.00,CLR,,0.00,WeatherDisplay:10.37,2013-09-30 07:57:00,
2013-09-30 04:57:00,48.5,47.7,30.36,ENE,58,0.0,0.0,97,0.00,CLR,,0.00,WeatherDisplay:10.37,2013-09-30 08:57:00,
2013-09-30 06:57:00,47.1,46.6,30.37,SW,225,0.0,1.0,98,0.00,CLR,,0.00,WeatherDisplay:10.37,2013-09-30 10:57:00,
2013-09-30 07:57:00,47.3,46.8,30.37,SW,225,0.0,1.0,98,0.00,CLR,,0.00,WeatherDisplay:10.37,2013-09-30 11:57:00,
2013-09-30 08:57:00,48.4,47.9,30.38,East,84,0.0,1.0,98,0.00,CLR,,0.00,WeatherDisplay:10.37,2013-09-30 12:57:00,
2013-09-30 09:57:00,49.7,49.2,30.36,West,262,0.0,1.0,98,0.00,CLR,,0.00,WeatherDisplay:10.37,2013-09-30 13:57:00,
2013-09-30 10:57:00,54.4,52.7,30.35,West,279,0.0,2.0,94,0.00,CLR,,0.00,WeatherDisplay:10.37,2013-09-30 14:57:00,
2013-09-30 11:57:00,60.9,49.1,30.32,WNW,290,0.0,3.0,65,0.00,CLR,,0.00,WeatherDisplay:10.37,2013-09-30 15:57:00,
2013-09-30 12:57:00,65.0,52.5,30.30,WSW,255,1.0,3.0,64,0.00,CLR,,0.00,WeatherDisplay:10.37,2013-09-30 16:57:00,
2013-09-30 13:57:00,67.7,54.2,30.28,ENE,68,1.0,3.0,62,0.00,CLR,,0.00,WeatherDisplay:10.37,2013-09-30 17:57:00,
2013-09-30 14:57:00,68.5,55.4,30.27,WNW,303,1.0,4.0,63,0.00,CLR,,0.00,WeatherDisplay:10.37,2013-09-30 18:57:00,
2013-09-30 15:57:00,65.8,54.5,30.25,ENE,76,1.0,4.0,67,0.00,CLR,,0.00,WeatherDisplay:10.37,2013-09-30 19:57:00,
2013-09-30 16:57:00,62.6,54.2,30.24,ENE,66,0.0,4.0,74,0.00,CLR,,0.00,WeatherDisplay:10.37,2013-09-30 20:57:00,
2013-09-30 17:57:00,59.7,53.9,30.25,East,91,0.0,0.0,81,0.00,CLR,,0.00,WeatherDisplay:10.37,2013-09-30 21:57:00,
2013-09-30 18:57:00,55.4,51.9,30.25,East,94,0.0,1.0,88,0.00,CLR,,0.00,WeatherDisplay:10.37,2013-09-30 22:57:00,
2013-09-30 19:57:00,51.8,50.1,30.25,East,94,0.0,0.0,94,0.00,CLR,,0.00,WeatherDisplay:10.37,2013-09-30 23:57:00,
2013-09-30 20:57:00,49.8,48.7,30.25,East,94,0.0,0.0,96,0.00,CLR,,0.00,WeatherDisplay:10.37,2013-10-01 00:57:00,
2013-09-30 21:57:00,48.5,47.7,30.25,East,94,0.0,0.0,97,0.00,CLR,,0.00,WeatherDisplay:10.37,2013-10-01 01:57:00,
2013-09-30 22:57:00,47.2,46.4,30.24,East,95,0.0,0.0,97,0.00,CLR,,0.00,WeatherDisplay:10.37,2013-10-01 02:57:00,
2013-09-30 23:57:00,47.0,46.5,30.24,East,94,0.0,0.0,98,0.00,CLR,,0.00,WeatherDisplay:10.37,2013-10-01 03:57:00,